Time;durP1;ratioP1;P1;durP2;ratioP2;P2;SDS_P1;SDS_P2;PMS_P1;PMS_P2;Temp;Humidity;BMP_temperature;BMP_pressure;BME280_temperature;BME280_humidity;BME280_pressure;Samples;Min_cycle;Max_cycle;Signal;HPM_P1;HPM_P2
2023/01/14 04:02:17;;;;;;;;;;;7.10;99.90;;;;;;5377541;22;19948;-75
2023/01/14 04:04:45;;;;;;;;;;;7.10;99.90;;;;;;5031788;28;19983;-72
2023/01/14 04:07:11;;;;;;;;;;;7.10;99.90;;;;;;5008586;28;19972;-75
2023/01/14 04:09:38;;;;;;;;;;;7.10;99.90;;;;;;5007547;28;20035;-75
2023/01/14 04:12:05;;;;;;;;;;;7.10;99.90;;;;;;5016659;28;19957;-75
2023/01/14 04:17:25;;;;;;;;;;;7.10;99.90;;;;;;4978171;28;19921;-74
2023/01/14 04:19:52;;;;;;;;;;;7.20;99.90;;;;;;5015696;28;19960;-75
2023/01/14 04:22:18;;;;;;;;;;;7.10;99.90;;;;;;5034377;28;20007;-75
2023/01/14 04:24:45;;;;;;;;;;;7.10;99.90;;;;;;5010281;28;20035;-72
2023/01/14 04:27:11;;;;;;;;;;;7.10;99.90;;;;;;5015580;28;19975;-71
2023/01/14 04:29:38;;;;;;;;;;;7.10;99.90;;;;;;5028275;28;19975;-73
2023/01/14 04:32:05;;;;;;;;;;;7.10;99.90;;;;;;5009079;28;19960;-72
2023/01/14 04:34:32;;;;;;;;;;;7.10;99.90;;;;;;5028864;28;19964;-72
2023/01/14 04:36:59;;;;;;;;;;;7.10;99.90;;;;;;5005960;28;19968;-71
2023/01/14 04:39:26;;;;;;;;;;;7.10;99.90;;;;;;5034042;28;20000;-72
2023/01/14 04:44:36;;;;;;;;;;;7.10;99.90;;;;;;5010946;28;19951;-73
2023/01/14 04:47:03;;;;;;;;;;;7.10;99.90;;;;;;5016309;28;19999;-71
2023/01/14 04:49:30;;;;;;;;;;;7.10;99.90;;;;;;5024837;28;19925;-71
2023/01/14 04:51:58;;;;;;;;;;;7.00;99.90;;;;;;5012830;28;19925;-71
2023/01/14 04:54:24;;;;;;;;;;;7.00;99.90;;;;;;5016300;28;20015;-72
2023/01/14 04:56:51;;;;;;;;;;;7.00;99.90;;;;;;5010113;28;19979;-76
2023/01/14 04:59:18;;;;;;;;;;;7.00;99.90;;;;;;5009205;28;19965;-74
2023/01/14 05:01:44;;;;;;;;;;;6.90;99.90;;;;;;5027977;28;19961;-74
2023/01/14 05:04:11;;;;;;;;;;;6.80;99.90;;;;;;5014609;28;19986;-75
2023/01/14 05:06:38;;;;;;;;;;;6.80;99.90;;;;;;5004981;28;19968;-76
2023/01/14 05:09:06;;;;;;;;;;;6.70;99.90;;;;;;5017159;28;20375;-75
2023/01/14 05:11:32;;;;;;;;;;;6.70;99.90;;;;;;5006173;28;19987;-75
2023/01/14 05:13:59;;;;;;;;;;;6.70;99.90;;;;;;5031270;28;19961;-75
2023/01/14 05:16:26;;;;;;;;;;;6.70;99.90;;;;;;5012559;28;19929;-75
2023/01/14 05:18:53;;;;;;;;;;;6.70;99.90;;;;;;5006489;28;20296;-74
2023/01/14 05:21:20;;;;;;;;;;;6.70;99.90;;;;;;5006486;28;20026;-75
2023/01/14 05:23:46;;;;;;;;;;;6.60;99.90;;;;;;5013394;28;19929;-77
2023/01/14 05:26:14;;;;;;;;;;;6.60;99.90;;;;;;5009669;28;19956;-75
2023/01/14 05:28:41;;;;;;;;;;;6.60;99.90;;;;;;5015583;28;19968;-75
2023/01/14 05:31:08;;;;;;;;;;;6.60;99.90;;;;;;5020589;28;20098;-73
2023/01/14 05:33:34;;;;;;;;;;;6.60;99.90;;;;;;5024899;28;19933;-74
2023/01/14 05:36:01;;;;;;;;;;;6.70;99.90;;;;;;5021259;28;19998;-78
2023/01/14 05:38:28;;;;;;;;;;;6.70;99.90;;;;;;5007007;28;20059;-75
2023/01/14 05:40:55;;;;;;;;;;;6.70;99.90;;;;;;5006014;28;19976;-74
2023/01/14 05:46:08;;;;;;;;;;;6.80;99.90;;;;;;5015004;28;20339;-74
2023/01/14 05:48:35;;;;;;;;;;;6.90;99.90;;;;;;5033678;28;19925;-74
2023/01/14 05:51:02;;;;;;;;;;;6.90;99.90;;;;;;5010830;28;19995;-74
2023/01/14 05:53:29;;;;;;;;;;;7.00;99.90;;;;;;5004388;28;20020;-75
2023/01/14 05:55:56;;;;;;;;;;;7.00;99.90;;;;;;5023346;28;19925;-74
2023/01/14 05:58:24;;;;;;;;;;;7.00;99.90;;;;;;5013638;28;20292;-75
2023/01/14 06:06:23;;;;;;;;;;;7.20;99.90;;;;;;5013390;28;19963;-71
2023/01/14 06:08:50;;;;;;;;;;;7.20;99.90;;;;;;5014369;28;19956;-74
2023/01/14 06:11:17;;;;;;;;;;;7.20;99.90;;;;;;5030435;28;19960;-73
2023/01/14 06:13:45;;;;;;;;;;;7.20;99.90;;;;;;5014835;28;20403;-75
2023/01/14 06:16:12;;;;;;;;;;;7.20;99.90;;;;;;5014517;28;20403;-72
2023/01/14 06:18:42;;;;;;;;;;;7.20;99.90;;;;;;5031910;28;19983;-71
2023/01/14 06:21:09;;;;;;;;;;;7.30;99.90;;;;;;5012180;28;20430;-73
2023/01/14 06:23:35;;;;;;;;;;;7.20;99.90;;;;;;5037561;23;19931;-70
2023/01/14 06:26:02;;;;;;;;;;;7.20;99.90;;;;;;5019212;28;19929;-70
2023/01/14 06:28:29;;;;;;;;;;;7.20;99.90;;;;;;5026779;28;19972;-70
2023/01/14 06:30:57;;;;;;;;;;;7.20;99.90;;;;;;5013791;28;19925;-70
2023/01/14 06:33:24;;;;;;;;;;;7.20;99.90;;;;;;5022331;28;19929;-71
2023/01/14 06:35:51;;;;;;;;;;;7.20;99.90;;;;;;5014173;28;19932;-68
2023/01/14 06:38:18;;;;;;;;;;;7.20;99.90;;;;;;5014126;28;19936;-70
2023/01/14 06:40:44;;;;;;;;;;;7.30;99.90;;;;;;5012970;28;19952;-71
2023/01/14 06:43:11;;;;;;;;;;;7.30;99.90;;;;;;5006271;28;19932;-71
2023/01/14 06:45:40;;;;;;;;;;;7.30;99.90;;;;;;5030179;28;20366;-71
2023/01/14 06:48:08;;;;;;;;;;;7.30;99.90;;;;;;5009389;28;20012;-72
2023/01/14 06:50:35;;;;;;;;;;;7.30;99.90;;;;;;5000310;28;19929;-71
2023/01/14 06:53:02;;;;;;;;;;;7.30;99.90;;;;;;5014301;28;19929;-73
2023/01/14 06:55:29;;;;;;;;;;;7.30;99.90;;;;;;5010787;28;19929;-71
2023/01/14 06:57:56;;;;;;;;;;;7.40;99.90;;;;;;5004484;28;19929;-71
2023/01/14 07:00:23;;;;;;;;;;;7.40;99.90;;;;;;5006454;28;19925;-71
2023/01/14 07:02:49;;;;;;;;;;;7.40;99.90;;;;;;5028850;28;19925;-71
2023/01/14 07:05:18;;;;;;;;;;;7.40;99.90;;;;;;5004125;28;19987;-72
2023/01/14 07:07:45;;;;;;;;;;;7.40;99.90;;;;;;5021227;28;19933;-72
2023/01/14 07:10:12;;;;;;;;;;;7.50;99.90;;;;;;5010013;28;19925;-71
2023/01/14 07:12:38;;;;;;;;;;;7.50;99.90;;;;;;5010555;28;20353;-72
2023/01/14 07:15:06;;;;;;;;;;;7.60;99.90;;;;;;5012776;28;19925;-73
2023/01/14 07:17:32;;;;;;;;;;;7.60;99.90;;;;;;5013174;28;19956;-73
2023/01/14 07:19:59;;;;;;;;;;;7.50;99.90;;;;;;5010052;28;19926;-73
2023/01/14 07:22:27;;;;;;;;;;;7.50;99.90;;;;;;5013662;28;19925;-72
2023/01/14 07:24:54;;;;;;;;;;;7.60;99.90;;;;;;5027124;28;19971;-71
2023/01/14 07:27:20;;;;;;;;;;;7.60;99.90;;;;;;5010614;28;19925;-71
2023/01/14 07:29:47;;;;;;;;;;;7.70;99.90;;;;;;5007061;28;19931;-70
2023/01/14 07:32:14;;;;;;;;;;;7.70;99.90;;;;;;5013806;28;19933;-72
2023/01/14 07:34:41;;;;;;;;;;;7.60;99.90;;;;;;5021375;28;19925;-71
2023/01/14 07:37:08;;;;;;;;;;;7.70;99.90;;;;;;5012648;28;19925;-71
2023/01/14 07:39:36;;;;;;;;;;;7.80;99.90;;;;;;5013561;28;20332;-71
2023/01/14 07:42:03;;;;;;;;;;;7.80;99.90;;;;;;5011732;28;19929;-71
2023/01/14 07:44:31;;;;;;;;;;;7.80;99.90;;;;;;5031008;28;20024;-71
2023/01/14 07:46:58;;;;;;;;;;;7.80;99.90;;;;;;5012436;28;19925;-71
2023/01/14 07:49:25;;;;;;;;;;;7.80;99.90;;;;;;5033693;28;19957;-73
2023/01/14 07:51:52;;;;;;;;;;;7.90;99.90;;;;;;5017389;28;19975;-72
2023/01/14 07:54:19;;;;;;;;;;;8.00;99.90;;;;;;5025604;28;19975;-71
2023/01/14 07:56:48;;;;;;;;;;;8.10;99.90;;;;;;5033970;28;19925;-70
2023/01/14 07:59:15;;;;;;;;;;;8.10;99.90;;;;;;5014060;28;20424;-74
2023/01/14 08:01:42;;;;;;;;;;;8.10;99.90;;;;;;5006332;28;19925;-72
2023/01/14 08:04:08;;;;;;;;;;;8.20;99.90;;;;;;5016007;28;20312;-70
2023/01/14 08:06:35;;;;;;;;;;;8.20;99.90;;;;;;5010830;28;19925;-72
2023/01/14 08:09:02;;;;;;;;;;;8.20;99.90;;;;;;5015022;28;19936;-69
2023/01/14 08:11:29;;;;;;;;;;;8.20;99.90;;;;;;5012843;28;19925;-71
2023/01/14 08:13:57;;;;;;;;;;;8.30;99.90;;;;;;5013981;28;19973;-71
2023/01/14 08:16:24;;;;;;;;;;;8.30;99.90;;;;;;5017001;28;19925;-71
2023/01/14 08:18:51;;;;;;;;;;;8.30;99.90;;;;;;5017851;28;19929;-69
2023/01/14 08:21:18;;;;;;;;;;;8.40;99.90;;;;;;5017017;28;19933;-72
2023/01/14 08:23:45;;;;;;;;;;;8.40;99.90;;;;;;5020435;28;19940;-72
2023/01/14 08:26:12;;;;;;;;;;;8.40;99.90;;;;;;5014892;28;19932;-71
2023/01/14 08:28:40;;;;;;;;;;;8.50;99.90;;;;;;5026776;28;20362;-71
2023/01/14 08:31:10;;;;;;;;;;;8.50;99.90;;;;;;5014811;28;19941;-71
2023/01/14 08:33:37;;;;;;;;;;;8.60;99.90;;;;;;5030428;28;19960;-72
2023/01/14 08:36:06;;;;;;;;;;;8.60;99.90;;;;;;5014704;28;19925;-72
2023/01/14 08:38:32;;;;;;;;;;;8.70;99.90;;;;;;5016538;28;19925;-71
2023/01/14 08:40:59;;;;;;;;;;;8.70;99.90;;;;;;5008867;28;19926;-72
2023/01/14 08:43:26;;;;;;;;;;;8.80;99.90;;;;;;5025183;28;20321;-70
2023/01/14 08:45:53;;;;;;;;;;;8.80;99.90;;;;;;5011279;28;19929;-72
2023/01/14 08:48:21;;;;;;;;;;;8.90;99.90;;;;;;5016472;28;19933;-69
2023/01/14 08:50:48;;;;;;;;;;;8.90;99.90;;;;;;5032696;28;19929;-71
2023/01/14 08:53:14;;;;;;;;;;;8.90;99.90;;;;;;5016579;28;19933;-71
2023/01/14 08:55:41;;;;;;;;;;;8.90;99.90;;;;;;5023553;28;19933;-72
2023/01/14 08:58:08;;;;;;;;;;;8.80;99.90;;;;;;5015791;28;19925;-71
2023/01/14 09:00:35;;;;;;;;;;;8.90;99.90;;;;;;5024302;28;19925;-71
2023/01/14 09:03:02;;;;;;;;;;;8.90;99.90;;;;;;5015197;28;19933;-72
2023/01/14 09:05:31;;;;;;;;;;;9.00;99.90;;;;;;5009760;28;19929;-71
2023/01/14 09:18:58;;;;;;;;;;;9.10;99.90;;;;;;5009334;28;19964;-72
2023/01/14 09:21:27;;;;;;;;;;;9.20;99.90;;;;;;5019096;28;19976;-71
2023/01/14 09:23:53;;;;;;;;;;;9.20;99.90;;;;;;5026902;28;19933;-71
2023/01/14 09:26:20;;;;;;;;;;;9.30;99.90;;;;;;5013308;28;20344;-72
2023/01/14 09:28:47;;;;;;;;;;;9.40;99.90;;;;;;5015337;28;20044;-72
2023/01/14 09:31:14;;;;;;;;;;;9.50;99.90;;;;;;5025340;28;19932;-72
2023/01/14 09:33:41;;;;;;;;;;;9.60;99.90;;;;;;5020820;28;19926;-71
2023/01/14 09:36:08;;;;;;;;;;;9.70;99.90;;;;;;4998071;28;19932;-72
2023/01/14 09:38:36;;;;;;;;;;;9.80;99.90;;;;;;5005260;28;19929;-71
2023/01/14 09:41:03;;;;;;;;;;;9.80;99.90;;;;;;5015913;28;19932;-71
2023/01/14 09:43:31;;;;;;;;;;;9.80;99.90;;;;;;5027578;28;19929;-72
2023/01/14 09:45:59;;;;;;;;;;;9.80;99.90;;;;;;5015299;28;19987;-71
2023/01/14 09:48:26;;;;;;;;;;;9.90;99.90;;;;;;5008295;28;20382;-72
2023/01/14 09:50:57;;;;;;;;;;;10.00;99.90;;;;;;5025547;28;19925;-72
2023/01/14 09:53:32;;;;;;;;;;;10.00;99.90;;;;;;5020810;28;19933;-72
2023/01/14 09:56:02;;;;;;;;;;;9.90;99.90;;;;;;5036449;28;19925;-71
2023/01/14 09:58:32;;;;;;;;;;;9.90;99.90;;;;;;5013907;28;19936;-72
2023/01/14 10:01:06;;;;;;;;;;;9.90;99.90;;;;;;5008857;28;19925;-71
2023/01/14 10:03:36;;;;;;;;;;;9.90;99.90;;;;;;5020607;28;19932;-72
2023/01/14 10:06:04;;;;;;;;;;;9.90;99.90;;;;;;5018388;28;20045;-72
2023/01/14 10:08:33;;;;;;;;;;;9.90;99.90;;;;;;5015013;28;19929;-71
2023/01/14 10:11:02;;;;;;;;;;;9.80;99.90;;;;;;5014741;28;19933;-72
2023/01/14 10:13:31;;;;;;;;;;;9.80;99.90;;;;;;5011329;28;20340;-70
2023/01/14 10:15:59;;;;;;;;;;;9.80;99.90;;;;;;5033395;28;19940;-71
2023/01/14 10:18:28;;;;;;;;;;;9.70;99.90;;;;;;5018041;28;19929;-72
2023/01/14 10:20:56;;;;;;;;;;;9.60;99.90;;;;;;5008024;28;19983;-71
2023/01/14 10:23:25;;;;;;;;;;;9.60;99.90;;;;;;5022632;28;19929;-71
2023/01/14 10:25:54;;;;;;;;;;;9.60;99.90;;;;;;5004850;28;19925;-71
2023/01/14 10:28:24;;;;;;;;;;;9.40;99.90;;;;;;5019560;28;19929;-70
2023/01/14 10:30:52;;;;;;;;;;;9.20;99.90;;;;;;5021590;28;20394;-72
2023/01/14 10:33:19;;;;;;;;;;;9.00;99.90;;;;;;5027402;28;19925;-71
2023/01/14 10:35:47;;;;;;;;;;;8.90;99.90;;;;;;5010390;28;20406;-71
2023/01/14 10:38:15;;;;;;;;;;;8.80;99.90;;;;;;5012187;28;19925;-72
2023/01/14 10:40:42;;;;;;;;;;;8.80;99.90;;;;;;5009350;28;19932;-71
2023/01/14 10:43:16;;;;;;;;;;;8.80;99.90;;;;;;5012113;28;19932;-69
2023/01/14 10:45:44;;;;;;;;;;;8.70;99.90;;;;;;5013685;28;19940;-72
2023/01/14 10:48:15;;;;;;;;;;;8.70;99.90;;;;;;5011101;28;19936;-72
2023/01/14 10:50:43;;;;;;;;;;;8.70;99.90;;;;;;5030744;28;19932;-71
2023/01/14 10:53:20;;;;;;;;;;;8.70;99.90;;;;;;5004443;28;19929;-72
2023/01/14 10:55:53;;;;;;;;;;;8.70;99.90;;;;;;5018265;28;19925;-72
2023/01/14 10:58:24;;;;;;;;;;;8.70;99.90;;;;;;5008999;28;19925;-70
2023/01/14 11:00:59;;;;;;;;;;;8.60;99.90;;;;;;5022179;28;20408;-72
2023/01/14 11:03:26;;;;;;;;;;;8.60;99.90;;;;;;5006596;28;19925;-72
2023/01/14 11:05:54;;;;;;;;;;;8.60;99.90;;;;;;5014131;28;20427;-72
2023/01/14 11:08:22;;;;;;;;;;;8.40;99.90;;;;;;5029459;28;19936;-71
2023/01/14 11:10:56;;;;;;;;;;;8.40;99.90;;;;;;5026002;28;19929;-72
2023/01/14 11:13:28;;;;;;;;;;;8.50;99.90;;;;;;5028414;28;20422;-70
2023/01/14 11:15:57;;;;;;;;;;;8.50;99.90;;;;;;5012736;28;19932;-69
2023/01/14 11:18:28;;;;;;;;;;;8.50;99.90;;;;;;5022622;28;19925;-69
2023/01/14 11:20:58;;;;;;;;;;;8.60;99.90;;;;;;5005560;28;19929;-70
2023/01/14 11:23:27;;;;;;;;;;;8.60;99.90;;;;;;5017750;28;19929;-70
2023/01/14 11:25:54;;;;;;;;;;;8.70;99.90;;;;;;5017993;28;20354;-70
2023/01/14 11:28:21;;;;;;;;;;;8.70;99.90;;;;;;5009674;28;20347;-70
2023/01/14 11:30:51;;;;;;;;;;;8.80;99.90;;;;;;5017810;28;19975;-70
2023/01/14 11:33:21;;;;;;;;;;;8.80;99.90;;;;;;5014808;28;20388;-70
2023/01/14 11:35:51;;;;;;;;;;;8.90;99.90;;;;;;5029756;28;19925;-69
2023/01/14 11:38:21;;;;;;;;;;;8.90;99.90;;;;;;5008694;28;19924;-69
2023/01/14 11:43:34;;;;;;;;;;;8.90;99.90;;;;;;5008441;28;19929;-70
2023/01/14 11:46:05;;;;;;;;;;;9.00;99.90;;;;;;5026450;28;19929;-69
2023/01/14 11:48:34;;;;;;;;;;;9.00;99.90;;;;;;5019719;28;19992;-69
2023/01/14 11:51:01;;;;;;;;;;;9.00;99.90;;;;;;5009956;28;19972;-70
2023/01/14 11:53:42;;;;;;;;;;;9.00;99.90;;;;;;5010786;28;20008;-70
2023/01/14 11:56:15;;;;;;;;;;;9.00;99.90;;;;;;5022873;28;19925;-70
2023/01/14 11:58:42;;;;;;;;;;;9.10;99.90;;;;;;5022070;28;19929;-70
2023/01/14 12:01:13;;;;;;;;;;;9.00;99.90;;;;;;5017022;28;19948;-70
2023/01/14 12:03:44;;;;;;;;;;;9.00;99.90;;;;;;5013995;28;19925;-70
2023/01/14 12:06:13;;;;;;;;;;;9.00;99.90;;;;;;5027469;28;20155;-70
2023/01/14 12:08:41;;;;;;;;;;;9.10;99.90;;;;;;5012778;28;19968;-70
2023/01/14 12:11:14;;;;;;;;;;;9.10;99.90;;;;;;5024248;28;20539;-70
2023/01/14 12:19:17;;;;;;;;;;;9.20;99.90;;;;;;5015969;28;19921;-70
2023/01/14 12:21:47;;;;;;;;;;;9.20;99.90;;;;;;5004171;28;19929;-70
2023/01/14 12:24:16;;;;;;;;;;;9.30;99.90;;;;;;5013097;28;19925;-70
2023/01/14 12:26:44;;;;;;;;;;;9.30;99.90;;;;;;5018968;28;19954;-69
2023/01/14 12:29:14;;;;;;;;;;;9.40;99.90;;;;;;5027477;28;19929;-70
2023/01/14 12:31:42;;;;;;;;;;;9.50;99.90;;;;;;5027780;28;19929;-70
2023/01/14 12:34:13;;;;;;;;;;;9.50;99.90;;;;;;5016392;28;19988;-70
2023/01/14 12:36:44;;;;;;;;;;;9.50;99.90;;;;;;5023231;28;19972;-68
2023/01/14 12:47:32;;;;;;;;;;;9.60;99.90;;;;;;5014282;28;19967;-70
2023/01/14 12:50:01;;;;;;;;;;;9.60;99.90;;;;;;5024456;28;20023;-70
2023/01/14 12:52:30;;;;;;;;;;;9.60;99.90;;;;;;5016270;28;19929;-70
2023/01/14 12:54:57;;;;;;;;;;;9.60;99.90;;;;;;5009573;28;19933;-71
2023/01/14 12:57:25;;;;;;;;;;;9.60;99.90;;;;;;5024576;28;19929;-70
2023/01/14 12:59:53;;;;;;;;;;;9.70;99.90;;;;;;5015938;28;19963;-70
2023/01/14 13:02:24;;;;;;;;;;;9.70;99.90;;;;;;5000013;28;19948;-69
2023/01/14 13:04:56;;;;;;;;;;;9.60;99.90;;;;;;5016473;28;19925;-70
2023/01/14 13:07:24;;;;;;;;;;;9.60;99.90;;;;;;5006708;28;19926;-70
2023/01/14 13:09:55;;;;;;;;;;;9.60;99.90;;;;;;5010406;28;19925;-70
2023/01/14 13:12:24;;;;;;;;;;;9.60;99.90;;;;;;5028833;28;19925;-70
2023/01/14 13:14:55;;;;;;;;;;;9.50;99.90;;;;;;5020452;28;19925;-70
2023/01/14 13:17:32;;;;;;;;;;;9.50;99.90;;;;;;5024587;28;19933;-70
2023/01/14 13:19:59;;;;;;;;;;;9.50;99.90;;;;;;5023645;28;20439;-70
2023/01/14 13:22:39;;;;;;;;;;;9.50;99.90;;;;;;5027731;28;20387;-70
2023/01/14 13:25:18;;;;;;;;;;;9.60;99.90;;;;;;5011550;28;19979;-70
2023/01/14 13:27:46;;;;;;;;;;;9.60;99.90;;;;;;5017416;28;19925;-71
2023/01/14 13:30:32;;;;;;;;;;;9.60;99.90;;;;;;5034494;28;19972;-70
2023/01/14 13:33:06;;;;;;;;;;;9.70;99.90;;;;;;5012659;28;19925;-71
2023/01/14 13:35:34;;;;;;;;;;;9.70;99.90;;;;;;4999106;28;20458;-70
2023/01/14 13:38:01;;;;;;;;;;;9.70;99.90;;;;;;5021513;28;19975;-70
2023/01/14 13:40:32;;;;;;;;;;;9.80;99.90;;;;;;5003762;28;19971;-69
2023/01/14 13:43:00;;;;;;;;;;;9.80;99.90;;;;;;5007148;28;20032;-70
2023/01/14 13:45:27;;;;;;;;;;;9.90;99.90;;;;;;5015339;28;19932;-70
2023/01/14 13:47:55;;;;;;;;;;;9.90;99.90;;;;;;5018981;28;19925;-70
2023/01/14 13:50:26;;;;;;;;;;;9.90;99.90;;;;;;5052882;22;19948;-74
2023/01/14 13:52:55;;;;;;;;;;;9.90;99.90;;;;;;4972481;28;19934;-75
2023/01/14 13:55:23;;;;;;;;;;;9.70;99.90;;;;;;4972784;28;19933;-77
2023/01/14 13:57:54;;;;;;;;;;;9.70;99.90;;;;;;4978336;28;19925;-75
2023/01/14 14:00:29;;;;;;;;;;;9.70;99.90;;;;;;4978859;28;19925;-75
2023/01/14 14:02:56;;;;;;;;;;;9.70;99.90;;;;;;4982316;28;19933;-74
2023/01/14 14:05:24;;;;;;;;;;;9.70;99.90;;;;;;4983119;28;19925;-76
2023/01/14 14:08:20;;;;;;;;;;;9.70;99.90;;;;;;4985982;28;19926;-76
2023/01/14 14:10:55;;;;;;;;;;;9.80;99.90;;;;;;4975789;28;19941;-76
2023/01/14 14:16:13;;;;;;;;;;;9.90;99.90;;;;;;4976366;28;19983;-75
2023/01/14 14:18:41;;;;;;;;;;;9.90;99.90;;;;;;4977932;28;20312;-77
2023/01/14 14:21:14;;;;;;;;;;;9.90;99.90;;;;;;4983606;28;20462;-76
2023/01/14 14:23:44;;;;;;;;;;;10.00;99.90;;;;;;4983576;28;19925;-76
2023/01/14 14:26:13;;;;;;;;;;;10.20;99.90;;;;;;4981443;28;19926;-75
2023/01/14 14:28:42;;;;;;;;;;;10.20;99.90;;;;;;4980444;28;20361;-76
2023/01/14 14:31:13;;;;;;;;;;;10.30;99.90;;;;;;4978395;28;19930;-76
2023/01/14 14:33:41;;;;;;;;;;;10.40;99.90;;;;;;4980718;28;19926;-75
2023/01/14 14:36:10;;;;;;;;;;;10.50;99.90;;;;;;4983083;28;20005;-76
2023/01/14 14:38:37;;;;;;;;;;;10.60;99.90;;;;;;4981307;28;19926;-77
2023/01/14 14:41:08;;;;;;;;;;;10.60;99.90;;;;;;4984185;28;20033;-78
2023/01/14 14:43:35;;;;;;;;;;;10.60;99.90;;;;;;4985633;28;19930;-75
2023/01/14 14:46:05;;;;;;;;;;;10.60;99.90;;;;;;4979114;28;19926;-76
2023/01/14 14:48:33;;;;;;;;;;;10.50;99.90;;;;;;4981262;28;19925;-76
2023/01/14 14:51:00;;;;;;;;;;;10.60;99.90;;;;;;4978703;28;20329;-76
2023/01/14 14:53:28;;;;;;;;;;;10.60;99.90;;;;;;4984142;28;19925;-76
2023/01/14 14:55:56;;;;;;;;;;;10.60;99.90;;;;;;4980783;28;20127;-75
2023/01/14 14:58:24;;;;;;;;;;;10.60;99.90;;;;;;4984455;28;19933;-79
2023/01/14 15:00:54;;;;;;;;;;;10.60;99.90;;;;;;4982843;28;19926;-76
2023/01/14 15:03:23;;;;;;;;;;;10.60;99.90;;;;;;4970726;28;19926;-75
2023/01/14 15:05:51;;;;;;;;;;;10.70;99.90;;;;;;4983971;28;19941;-78
2023/01/14 15:08:20;;;;;;;;;;;10.80;99.90;;;;;;4974863;28;19986;-76
2023/01/14 15:10:47;;;;;;;;;;;10.80;99.90;;;;;;4981602;28;19930;-76
2023/01/14 15:13:17;;;;;;;;;;;10.70;99.90;;;;;;4975699;28;19926;-75
2023/01/14 15:15:43;;;;;;;;;;;10.80;99.90;;;;;;4978504;28;19925;-76
2023/01/14 15:18:29;;;;;;;;;;;10.80;99.90;;;;;;4976590;28;19926;-77
2023/01/14 15:20:57;;;;;;;;;;;10.90;99.90;;;;;;4975215;28;19930;-76
2023/01/14 15:23:24;;;;;;;;;;;11.00;99.90;;;;;;4982814;28;19932;-76
2023/01/14 15:25:51;;;;;;;;;;;10.90;99.90;;;;;;4981610;28;19932;-76
2023/01/14 15:28:19;;;;;;;;;;;10.90;99.90;;;;;;4986198;28;19926;-76
2023/01/14 15:30:54;;;;;;;;;;;11.00;99.90;;;;;;4977544;28;19934;-77
2023/01/14 15:33:28;;;;;;;;;;;11.10;99.90;;;;;;4973707;28;20415;-77
2023/01/14 15:35:58;;;;;;;;;;;11.10;99.90;;;;;;4978202;28;20392;-76
2023/01/14 15:38:25;;;;;;;;;;;11.10;99.90;;;;;;4979815;28;19981;-77
2023/01/14 15:40:52;;;;;;;;;;;11.10;99.90;;;;;;4981355;28;19925;-76
2023/01/14 15:43:23;;;;;;;;;;;11.20;99.90;;;;;;4986134;28;19932;-77
2023/01/14 15:45:50;;;;;;;;;;;11.30;99.90;;;;;;4980479;28;20024;-77
2023/01/14 15:48:18;;;;;;;;;;;11.30;99.90;;;;;;4979588;28;19937;-76
2023/01/14 15:50:52;;;;;;;;;;;11.40;99.90;;;;;;4983294;28;20370;-76
2023/01/14 15:53:23;;;;;;;;;;;11.40;99.90;;;;;;4983367;28;19925;-76
2023/01/14 15:56:00;;;;;;;;;;;11.40;99.90;;;;;;4984428;28;20397;-77
2023/01/14 15:58:29;;;;;;;;;;;11.40;99.90;;;;;;4981198;28;19930;-77
2023/01/14 16:00:57;;;;;;;;;;;11.40;99.90;;;;;;4989226;28;19973;-76
2023/01/14 16:03:31;;;;;;;;;;;11.30;99.90;;;;;;4985040;28;19933;-76
2023/01/14 16:05:58;;;;;;;;;;;11.20;99.90;;;;;;4980790;28;20447;-77
2023/01/14 16:08:26;;;;;;;;;;;11.10;99.90;;;;;;4989051;28;19983;-77
2023/01/14 16:10:53;;;;;;;;;;;11.10;99.90;;;;;;4981280;28;19925;-78
2023/01/14 16:13:21;;;;;;;;;;;11.10;99.90;;;;;;4978229;28;19930;-76
2023/01/14 16:15:48;;;;;;;;;;;11.30;99.90;;;;;;4983002;28;20365;-77
2023/01/14 16:18:16;;;;;;;;;;;11.20;99.90;;;;;;4978805;28;19934;-76
2023/01/14 16:20:43;;;;;;;;;;;11.20;99.90;;;;;;4978273;28;19929;-76
2023/01/14 16:23:10;;;;;;;;;;;11.20;99.90;;;;;;4982350;28;19930;-77
2023/01/14 16:25:39;;;;;;;;;;;11.20;99.90;;;;;;4985071;28;19926;-75
2023/01/14 16:28:06;;;;;;;;;;;11.30;99.90;;;;;;4981762;28;19942;-79
2023/01/14 16:30:33;;;;;;;;;;;11.30;99.90;;;;;;4987472;28;19925;-76
2023/01/14 16:32:59;;;;;;;;;;;11.30;99.90;;;;;;4987397;28;19926;-76
2023/01/14 16:35:26;;;;;;;;;;;11.40;99.90;;;;;;4989503;28;19929;-78
2023/01/14 16:37:53;;;;;;;;;;;11.30;99.90;;;;;;4984202;28;19972;-77
2023/01/14 16:40:23;;;;;;;;;;;11.40;99.90;;;;;;4985742;28;19929;-76
2023/01/14 16:42:52;;;;;;;;;;;11.40;99.90;;;;;;4989031;28;19964;-79
2023/01/14 16:45:19;;;;;;;;;;;11.50;99.90;;;;;;4981819;28;19930;-77
2023/01/14 16:47:46;;;;;;;;;;;11.60;99.90;;;;;;4982063;28;20108;-74
2023/01/14 16:50:13;;;;;;;;;;;11.50;99.90;;;;;;4982907;28;19926;-75
2023/01/14 16:52:40;;;;;;;;;;;11.60;99.90;;;;;;4981890;28;19991;-77
2023/01/14 16:55:07;;;;;;;;;;;11.60;99.90;;;;;;4997505;28;19937;-75
2023/01/14 16:57:34;;;;;;;;;;;11.60;99.90;;;;;;4985329;28;19929;-75
2023/01/14 17:00:02;;;;;;;;;;;11.70;99.90;;;;;;4988149;28;20337;-75
2023/01/14 17:02:29;;;;;;;;;;;11.70;99.90;;;;;;4986452;28;19997;-75
2023/01/14 17:04:56;;;;;;;;;;;11.80;99.90;;;;;;4988698;28;19993;-76
2023/01/14 17:07:23;;;;;;;;;;;11.70;99.90;;;;;;4981808;28;19934;-75
2023/01/14 17:09:50;;;;;;;;;;;11.60;99.90;;;;;;4982266;28;19942;-75
2023/01/14 17:15:03;;;;;;;;;;;11.50;99.90;;;;;;4978781;28;20269;-74
2023/01/14 17:17:30;;;;;;;;;;;11.40;99.90;;;;;;4981040;28;19929;-73
2023/01/14 17:19:57;;;;;;;;;;;11.50;99.90;;;;;;4983514;28;19976;-76
2023/01/14 17:22:24;;;;;;;;;;;11.40;99.90;;;;;;4981553;28;20439;-74
2023/01/14 17:24:50;;;;;;;;;;;11.40;99.90;;;;;;4981957;28;19933;-74
2023/01/14 17:27:17;;;;;;;;;;;11.30;99.90;;;;;;4982200;28;19926;-77
2023/01/14 17:29:44;;;;;;;;;;;11.30;99.90;;;;;;4986157;28;19926;-74
2023/01/14 17:32:13;;;;;;;;;;;11.40;99.90;;;;;;4986965;28;19933;-76
2023/01/14 17:34:40;;;;;;;;;;;11.50;99.90;;;;;;4983841;28;19940;-77
2023/01/14 17:37:06;;;;;;;;;;;11.50;99.90;;;;;;4985793;28;19929;-75
2023/01/14 17:39:33;;;;;;;;;;;11.60;99.90;;;;;;4979279;28;20356;-74
2023/01/14 17:42:12;;;;;;;;;;;11.80;99.90;;;;;;4984211;28;19980;-76
2023/01/14 17:44:39;;;;;;;;;;;11.80;99.90;;;;;;4979611;28;20016;-76
2023/01/14 17:47:07;;;;;;;;;;;11.80;99.90;;;;;;4983240;28;19984;-77
2023/01/14 17:49:36;;;;;;;;;;;11.90;99.90;;;;;;4980967;28;19926;-74
2023/01/14 17:52:03;;;;;;;;;;;12.00;99.90;;;;;;4980455;28;20033;-75
2023/01/14 17:54:30;;;;;;;;;;;12.10;99.90;;;;;;4978022;28;20447;-74
2023/01/14 17:56:57;;;;;;;;;;;12.20;99.90;;;;;;4982757;28;19930;-75
2023/01/14 17:59:24;;;;;;;;;;;12.40;99.90;;;;;;4984816;28;19926;-74
2023/01/14 18:01:50;;;;;;;;;;;12.40;99.90;;;;;;4983624;28;20389;-75
2023/01/14 18:04:17;;;;;;;;;;;12.40;99.90;;;;;;4978464;28;19933;-75
2023/01/14 18:06:45;;;;;;;;;;;12.40;99.90;;;;;;4978279;28;19930;-75
2023/01/14 18:09:12;;;;;;;;;;;12.40;99.90;;;;;;4979818;28;19929;-73
2023/01/14 18:11:40;;;;;;;;;;;12.40;99.90;;;;;;4980049;28;19933;-75
2023/01/14 18:14:06;;;;;;;;;;;12.30;99.90;;;;;;4982149;28;19925;-74
2023/01/14 18:16:33;;;;;;;;;;;12.40;99.90;;;;;;4982133;28;20325;-75
2023/01/14 18:19:01;;;;;;;;;;;12.20;99.90;;;;;;4977829;28;19933;-75
2023/01/14 18:21:28;;;;;;;;;;;12.30;99.90;;;;;;4981658;28;19985;-78
2023/01/14 18:23:56;;;;;;;;;;;12.20;99.90;;;;;;4979800;28;19926;-76
2023/01/14 18:26:24;;;;;;;;;;;12.20;99.90;;;;;;4983013;28;19953;-75
2023/01/14 18:28:53;;;;;;;;;;;12.30;99.90;;;;;;4984426;28;19933;-75
2023/01/14 18:31:19;;;;;;;;;;;12.30;99.90;;;;;;4981921;28;20392;-74
2023/01/14 18:33:47;;;;;;;;;;;12.30;99.90;;;;;;4977706;28;19929;-72
2023/01/14 18:36:15;;;;;;;;;;;12.30;99.90;;;;;;4983157;28;20522;-75
2023/01/14 18:38:41;;;;;;;;;;;12.20;99.90;;;;;;4981240;28;19925;-74
2023/01/14 18:41:10;;;;;;;;;;;12.20;99.90;;;;;;4979048;28;19933;-75
2023/01/14 18:43:37;;;;;;;;;;;12.00;99.90;;;;;;4980455;28;19948;-76
2023/01/14 18:46:08;;;;;;;;;;;12.10;99.90;;;;;;4979352;28;19930;-76
2023/01/14 18:48:35;;;;;;;;;;;12.10;99.90;;;;;;4979584;28;20421;-75
2023/01/14 18:51:02;;;;;;;;;;;12.30;99.90;;;;;;4980447;28;19933;-75
2023/01/14 18:53:29;;;;;;;;;;;12.40;99.90;;;;;;4983325;28;19925;-75
2023/01/14 18:55:56;;;;;;;;;;;12.40;99.90;;;;;;4976567;28;19930;-76
2023/01/14 18:58:24;;;;;;;;;;;12.50;99.90;;;;;;4983465;28;19932;-75
2023/01/14 19:00:51;;;;;;;;;;;12.40;99.90;;;;;;4983593;28;19925;-73
2023/01/14 19:03:17;;;;;;;;;;;12.40;99.90;;;;;;4986613;28;19930;-75
2023/01/14 19:05:44;;;;;;;;;;;12.30;99.90;;;;;;4978020;28;19929;-76
2023/01/14 19:08:11;;;;;;;;;;;12.30;99.90;;;;;;4979757;28;20348;-75
2023/01/14 19:10:38;;;;;;;;;;;12.30;99.90;;;;;;4981888;28;20478;-75
2023/01/14 19:13:04;;;;;;;;;;;12.30;99.90;;;;;;4976544;28;19941;-77
2023/01/14 19:15:33;;;;;;;;;;;12.30;99.90;;;;;;4979352;28;19926;-75
2023/01/14 19:17:59;;;;;;;;;;;12.30;99.90;;;;;;4981682;28;19979;-76
2023/01/14 19:20:26;;;;;;;;;;;12.30;99.90;;;;;;4983242;28;19980;-76